Time;durP1;ratioP1;P1;durP2;ratioP2;P2;SDS_P1;SDS_P2;PMS_P1;PMS_P2;Temp;Humidity;BMP_temperature;BMP_pressure;BME280_temperature;BME280_humidity;BME280_pressure;Samples;Min_cycle;Max_cycle;Signal;HPM_P1;HPM_P2
2023/02/22 00:01:20;;;;;;;17.75;8.88;;;7.00;99.90;;;;;;5037894;28;20064;-61
2023/02/22 00:03:52;;;;;;;14.50;8.68;;;7.10;99.90;;;;;;5034803;28;20057;-61
2023/02/22 00:06:22;;;;;;;16.63;8.65;;;7.10;99.90;;;;;;5043150;28;20132;-61
2023/02/22 00:08:48;;;;;;;13.65;8.93;;;7.10;99.90;;;;;;5041717;28;20024;-61
2023/02/22 00:11:15;;;;;;;18.73;10.23;;;7.10;99.90;;;;;;5037608;28;20407;-60
2023/02/22 00:13:43;;;;;;;20.48;9.82;;;7.10;99.90;;;;;;5043417;28;20097;-59
2023/02/22 00:16:15;;;;;;;15.82;8.95;;;7.10;99.90;;;;;;5037794;28;20080;-59
2023/02/22 00:18:40;;;;;;;17.98;9.60;;;7.00;99.90;;;;;;5047901;28;20099;-58
2023/02/22 00:21:09;;;;;;;17.52;9.52;;;7.10;99.90;;;;;;5041269;28;20108;-60
2023/02/22 00:23:38;;;;;;;18.25;9.10;;;7.10;99.90;;;;;;5049311;28;20104;-58
2023/02/22 00:26:08;;;;;;;21.40;9.25;;;7.00;99.90;;;;;;5034527;28;20036;-59
2023/02/22 00:28:37;;;;;;;16.90;9.05;;;7.00;99.90;;;;;;5042617;28;20029;-61
2023/02/22 00:31:05;;;;;;;17.63;8.75;;;7.00;99.90;;;;;;5044060;28;20037;-60
2023/02/22 00:33:31;;;;;;;17.20;8.68;;;7.00;99.90;;;;;;5041979;28;20473;-59
2023/02/22 00:35:57;;;;;;;13.32;7.93;;;7.00;99.90;;;;;;5046452;28;20028;-59
2023/02/22 00:38:23;;;;;;;15.73;8.93;;;7.00;99.90;;;;;;5018849;28;20109;-61
2023/02/22 00:40:48;;;;;;;17.45;8.82;;;7.00;99.90;;;;;;5038787;28;20112;-58
2023/02/22 00:43:14;;;;;;;16.45;8.07;;;7.00;99.90;;;;;;5034864;28;20456;-59
2023/02/22 00:45:40;;;;;;;17.80;8.23;;;7.00;99.90;;;;;;5039177;28;20022;-60
2023/02/22 00:48:07;;;;;;;13.75;7.55;;;7.00;99.90;;;;;;5043482;28;20036;-61
2023/02/22 00:50:34;;;;;;;17.00;7.82;;;7.00;99.90;;;;;;5042389;28;20075;-58
2023/02/22 00:53:02;;;;;;;18.42;7.70;;;7.00;99.90;;;;;;5037064;28;20101;-58
2023/02/22 00:55:30;;;;;;;14.27;7.10;;;7.00;99.90;;;;;;5039288;28;20052;-60
2023/02/22 00:57:57;;;;;;;11.20;6.18;;;7.00;99.90;;;;;;5028243;28;20427;-58
2023/02/22 01:00:26;;;;;;;14.90;6.90;;;7.00;99.90;;;;;;5040526;28;20048;-60
2023/02/22 01:02:54;;;;;;;15.02;7.85;;;7.00;99.90;;;;;;5038943;28;20576;-61
2023/02/22 01:05:22;;;;;;;15.00;7.13;;;7.00;99.90;;;;;;5043947;28;20021;-59
2023/02/22 01:07:49;;;;;;;15.70;7.45;;;7.00;99.90;;;;;;5046316;28;20112;-60
2023/02/22 01:10:16;;;;;;;13.55;6.72;;;7.00;99.90;;;;;;5043185;28;20403;-60
2023/02/22 01:12:42;;;;;;;13.43;7.28;;;7.00;99.90;;;;;;5040773;28;20033;-62
2023/02/22 01:15:09;;;;;;;16.25;7.38;;;7.00;99.90;;;;;;5043365;28;20029;-58
2023/02/22 01:17:36;;;;;;;11.02;7.05;;;7.00;99.90;;;;;;5040723;28;20382;-56
2023/02/22 01:20:09;;;;;;;20.90;8.10;;;7.00;99.90;;;;;;5039599;28;20029;-59
2023/02/22 01:22:34;;;;;;;17.55;8.20;;;7.00;99.90;;;;;;5040866;28;20025;-61
2023/02/22 01:25:00;;;;;;;19.92;7.90;;;7.00;99.90;;;;;;5043953;28;20036;-59
2023/02/22 01:27:25;;;;;;;23.80;8.07;;;7.00;99.90;;;;;;5040873;28;20025;-61
2023/02/22 01:29:51;;;;;;;18.42;7.22;;;7.00;99.90;;;;;;5034815;28;20029;-59
2023/02/22 01:32:16;;;;;;;14.52;6.95;;;7.00;99.90;;;;;;5041897;28;20021;-59
2023/02/22 01:34:42;;;;;;;15.85;7.82;;;7.00;99.90;;;;;;5041208;28;20030;-61
2023/02/22 01:37:08;;;;;;;21.17;10.25;;;7.00;99.90;;;;;;5036803;28;20509;-58
2023/02/22 01:39:33;;;;;;;19.88;8.98;;;7.00;99.90;;;;;;5036365;28;20025;-58
2023/02/22 01:41:59;;;;;;;18.73;8.30;;;7.00;99.90;;;;;;5036772;28;20496;-59
2023/02/22 01:44:37;;;;;;;20.63;9.77;;;7.00;99.90;;;;;;5039129;28;20037;-59
2023/02/22 01:47:04;;;;;;;13.63;7.78;;;7.00;99.90;;;;;;5036290;28;20541;-56
2023/02/22 01:49:45;;;;;;;21.88;9.60;;;7.00;99.90;;;;;;5046406;28;20025;-60
2023/02/22 01:52:16;;;;;;;15.80;8.15;;;7.00;99.90;;;;;;5036667;28;20025;-59
2023/02/22 01:54:49;;;;;;;16.67;8.00;;;7.00;99.90;;;;;;5030914;28;20499;-61
2023/02/22 01:57:24;;;;;;;20.40;8.45;;;7.00;99.90;;;;;;5039257;28;20025;-59
2023/02/22 01:59:53;;;;;;;17.17;9.07;;;7.00;99.90;;;;;;5033475;28;20111;-59
2023/02/22 02:02:20;;;;;;;20.50;8.85;;;7.00;99.90;;;;;;5035188;28;20037;-56
2023/02/22 02:04:47;;;;;;;16.60;8.25;;;7.00;99.90;;;;;;5038988;28;20079;-57
2023/02/22 02:07:15;;;;;;;19.90;8.50;;;7.00;99.90;;;;;;5034622;28;20017;-60
2023/02/22 02:09:58;;;;;;;18.15;8.20;;;7.00;99.90;;;;;;5045802;28;20079;-58
2023/02/22 02:12:26;;;;;;;22.00;9.30;;;7.00;99.90;;;;;;5035487;28;20025;-56
2023/02/22 02:14:51;;;;;;;22.52;9.40;;;7.00;99.90;;;;;;5031453;28;20088;-60
2023/02/22 02:17:20;;;;;;;24.17;9.48;;;7.00;99.90;;;;;;5038861;28;20017;-59
2023/02/22 02:20:10;;;;;;;18.73;8.57;;;7.00;99.90;;;;;;5040213;28;20025;-58
2023/02/22 02:23:15;;;;;;;21.80;9.10;;;7.00;99.90;;;;;;5039318;28;20223;-59
2023/02/22 02:25:49;;;;;;;25.02;9.10;;;7.00;99.90;;;;;;5034776;28;20080;-56
2023/02/22 02:29:00;;;;;;;20.75;9.18;;;7.00;99.90;;;;;;5042173;28;20029;-61
2023/02/22 02:31:35;;;;;;;23.40;9.50;;;7.00;99.90;;;;;;5027162;28;20045;-60
2023/02/22 02:34:25;;;;;;;21.13;9.95;;;7.00;99.90;;;;;;5034783;28;20090;-56
2023/02/22 02:37:24;;;;;;;26.42;9.85;;;7.00;99.90;;;;;;5000741;28;20045;-57
2023/02/22 02:40:05;;;;;;;19.92;8.57;;;7.00;99.90;;;;;;5029899;28;20025;-57
2023/02/22 02:42:38;;;;;;;18.85;9.20;;;7.00;99.90;;;;;;5034902;28;20022;-57
2023/02/22 02:45:09;;;;;;;24.13;8.75;;;7.00;99.90;;;;;;5035348;28;20403;-59
2023/02/22 02:47:42;;;;;;;20.25;8.68;;;7.00;99.90;;;;;;5035160;28;20104;-59
2023/02/22 02:50:36;;;;;;;24.92;9.40;;;7.00;99.90;;;;;;5040123;28;20513;-60
2023/02/22 02:53:06;;;;;;;27.17;9.35;;;7.00;99.90;;;;;;5037355;28;20097;-57
2023/02/22 02:55:35;;;;;;;23.48;8.77;;;7.00;99.90;;;;;;5045675;28;20025;-58
2023/02/22 02:58:03;;;;;;;36.00;10.80;;;7.00;99.90;;;;;;5036801;28;20026;-56
2023/02/22 03:00:38;;;;;;;24.70;9.70;;;7.10;99.90;;;;;;5044414;28;20013;-57
2023/02/22 03:03:09;;;;;;;25.60;10.05;;;7.00;99.90;;;;;;5041800;28;20076;-56
2023/02/22 03:06:22;;;;;;;21.27;9.55;;;7.00;99.90;;;;;;5039809;28;20112;-59
2023/02/22 03:08:58;;;;;;;29.00;10.32;;;7.00;99.90;;;;;;5039443;28;20036;-59
2023/02/22 03:11:27;;;;;;;;;;;7.00;99.90;;;;;;5040706;28;20044;-59
2023/02/22 03:13:58;;;;;;;24.15;9.40;;;7.00;99.90;;;;;;5036222;28;20395;-57
2023/02/22 03:16:46;;;;;;;32.45;11.05;;;7.00;99.90;;;;;;5035934;28;20025;-59
2023/02/22 03:19:33;;;;;;;22.88;9.75;;;7.10;99.90;;;;;;5036447;28;20025;-59
2023/02/22 03:22:17;;;;;;;34.00;10.77;;;7.00;99.90;;;;;;5033634;28;20029;-59
2023/02/22 03:25:07;;;;;;;25.02;10.57;;;7.00;99.90;;;;;;5045368;28;20365;-60
2023/02/22 03:27:42;;;;;;;30.63;11.65;;;7.00;99.90;;;;;;5036350;28;20025;-60
2023/02/22 03:30:14;;;;;;;25.55;10.75;;;7.00;99.90;;;;;;5038291;28;20507;-59
2023/02/22 03:32:46;;;;;;;23.88;9.82;;;7.00;99.90;;;;;;5039073;28;20117;-59
2023/02/22 03:35:21;;;;;;;36.95;12.68;;;7.00;99.90;;;;;;5041425;28;20051;-58
2023/02/22 03:37:52;;;;;;;35.65;12.45;;;7.00;99.90;;;;;;5040217;28;20021;-59
2023/02/22 03:40:30;;;;;;;30.13;10.13;;;7.10;99.90;;;;;;5041260;28;20029;-57
2023/02/22 03:43:02;;;;;;;27.98;12.60;;;7.00;99.90;;;;;;5034821;28;20548;-59
2023/02/22 03:45:29;;;;;;;26.40;10.85;;;7.00;99.90;;;;;;5040599;28;20103;-59
2023/02/22 03:48:24;;;;;;;22.15;10.13;;;7.00;99.90;;;;;;5039521;28;20511;-61
2023/02/22 03:50:50;;;;;;;21.27;11.25;;;7.00;99.90;;;;;;5029980;28;20038;-57
2023/02/22 03:53:18;;;;;;;23.05;9.73;;;7.00;99.90;;;;;;5042658;28;20029;-59
2023/02/22 03:55:50;;;;;;;25.15;10.68;;;7.00;99.90;;;;;;5037999;28;20021;-59
2023/02/22 03:58:19;;;;;;;23.83;11.32;;;7.00;99.90;;;;;;5043880;28;20025;-60
2023/02/22 04:00:45;;;;;;;32.38;10.15;;;7.00;99.90;;;;;;5036034;28;20495;-61
2023/02/22 04:03:10;;;;;;;27.27;11.23;;;7.00;99.90;;;;;;5037668;28;20025;-57
2023/02/22 04:05:36;;;;;;;22.88;10.40;;;7.00;99.90;;;;;;5043067;28;20033;-55
2023/02/22 04:08:01;;;;;;;32.15;12.32;;;7.00;99.90;;;;;;5034412;28;20052;-59
2023/02/22 04:10:27;;;;;;;24.65;10.40;;;7.00;99.90;;;;;;5031544;28;20026;-57
2023/02/22 04:12:53;;;;;;;23.10;10.90;;;7.00;99.90;;;;;;5043206;28;20119;-59
2023/02/22 04:15:21;;;;;;;25.65;11.10;;;7.00;99.90;;;;;;5037456;28;20029;-58
2023/02/22 04:17:47;;;;;;;26.75;10.35;;;7.00;99.90;;;;;;5030685;28;20029;-59
2023/02/22 04:20:14;;;;;;;27.15;11.50;;;7.00;99.90;;;;;;5035356;28;20033;-59
2023/02/22 04:22:40;;;;;;;28.13;11.10;;;7.00;99.90;;;;;;5039801;28;20088;-55
2023/02/22 04:25:06;;;;;;;23.23;10.05;;;7.00;99.90;;;;;;5038362;28;20502;-56
2023/02/22 04:27:33;;;;;;;23.25;9.88;;;7.00;99.90;;;;;;5036769;28;20096;-54
2023/02/22 04:29:58;;;;;;;20.88;9.85;;;7.10;99.90;;;;;;5041678;28;20028;-59
2023/02/22 04:32:25;;;;;;;22.80;9.50;;;7.00;99.90;;;;;;5036992;28;20113;-58
2023/02/22 04:34:50;;;;;;;22.48;9.95;;;7.00;99.90;;;;;;5024474;28;20032;-58
2023/02/22 04:37:16;;;;;;;18.42;9.18;;;7.00;99.90;;;;;;5039838;28;20164;-58
2023/02/22 04:39:42;;;;;;;18.52;8.57;;;7.00;99.90;;;;;;5034923;28;20022;-59
2023/02/22 04:42:07;;;;;;;15.68;7.57;;;7.00;99.90;;;;;;5044445;28;20112;-59
2023/02/22 04:44:33;;;;;;;19.48;8.63;;;7.00;99.90;;;;;;5038207;28;20034;-59
2023/02/22 04:46:58;;;;;;;18.48;8.00;;;7.00;99.90;;;;;;5033943;28;20032;-58
2023/02/22 04:49:24;;;;;;;15.98;7.60;;;7.00;99.90;;;;;;5036847;28;20033;-58
2023/02/22 04:51:49;;;;;;;16.23;8.32;;;7.00;99.90;;;;;;5038811;28;20029;-60
2023/02/22 04:54:16;;;;;;;16.17;8.15;;;7.00;99.90;;;;;;5030478;28;20046;-58
2023/02/22 04:56:42;;;;;;;18.58;9.13;;;7.00;99.90;;;;;;5030670;28;20479;-57
2023/02/22 04:59:08;;;;;;;15.90;8.40;;;7.00;99.90;;;;;;5035251;28;20049;-61
2023/02/22 05:01:35;;;;;;;15.50;7.53;;;7.00;99.90;;;;;;5032757;28;20072;-61
2023/02/22 05:04:02;;;;;;;19.88;9.25;;;7.00;99.90;;;;;;5033387;28;20021;-59
2023/02/22 05:06:28;;;;;;;16.95;7.88;;;7.00;99.90;;;;;;5039188;28;20083;-61
2023/02/22 05:08:53;;;;;;;14.15;7.32;;;7.00;99.90;;;;;;5043505;28;20462;-60
2023/02/22 05:11:19;;;;;;;16.10;7.80;;;7.00;99.90;;;;;;5037231;28;20033;-60
2023/02/22 05:13:44;;;;;;;14.93;8.07;;;7.00;99.90;;;;;;5044472;28;20175;-61
2023/02/22 05:16:10;;;;;;;16.38;7.18;;;7.00;99.90;;;;;;5041605;28;20028;-60
2023/02/22 05:18:35;;;;;;;17.65;7.53;;;7.00;99.90;;;;;;5038088;28;20029;-59
2023/02/22 05:21:01;;;;;;;19.50;8.07;;;7.00;99.90;;;;;;5059229;28;20137;-57
2023/02/22 05:23:26;;;;;;;14.18;7.20;;;7.00;99.90;;;;;;5042632;28;20502;-59
2023/02/22 05:25:52;;;;;;;14.45;6.80;;;7.00;99.90;;;;;;5040684;28;20029;-61
2023/02/22 05:28:18;;;;;;;17.77;7.90;;;7.00;99.90;;;;;;5041830;28;20035;-58
2023/02/22 05:30:43;;;;;;;13.10;7.25;;;7.00;99.90;;;;;;5043353;28;20100;-61
2023/02/22 05:33:09;;;;;;;17.77;7.30;;;7.00;99.90;;;;;;5041611;28;20471;-60
2023/02/22 05:35:36;;;;;;;18.50;6.97;;;7.00;99.90;;;;;;5041485;28;20037;-61
2023/02/22 05:38:02;;;;;;;12.88;6.40;;;7.00;99.90;;;;;;5043360;28;20021;-60
2023/02/22 05:40:29;;;;;;;14.05;6.10;;;7.00;99.90;;;;;;5042193;28;20023;-59
2023/02/22 05:42:56;;;;;;;15.20;6.55;;;7.00;99.90;;;;;;5041055;28;20044;-59
2023/02/22 05:45:23;;;;;;;15.05;8.18;;;7.00;99.90;;;;;;5035792;28;20043;-60
2023/02/22 05:47:49;;;;;;;14.15;7.80;;;7.00;99.90;;;;;;5040351;28;20021;-58
2023/02/22 05:50:15;;;;;;;15.13;7.80;;;7.00;99.90;;;;;;5040016;28;20039;-57
2023/02/22 05:52:41;;;;;;;15.05;7.63;;;7.00;99.90;;;;;;5039231;28;20049;-58
2023/02/22 05:55:07;;;;;;;12.65;7.57;;;7.00;99.90;;;;;;5043047;28;20068;-57
2023/02/22 05:57:33;;;;;;;13.15;6.82;;;7.00;99.90;;;;;;5035912;28;20021;-55
2023/02/22 05:59:59;;;;;;;18.33;8.77;;;7.00;99.90;;;;;;5043067;28;20017;-59
2023/02/22 06:02:25;;;;;;;19.33;9.27;;;7.00;99.90;;;;;;5042050;28;20037;-55
2023/02/22 06:04:50;;;;;;;19.48;8.98;;;7.00;99.90;;;;;;5032680;28;20087;-57
2023/02/22 06:07:16;;;;;;;15.95;8.73;;;7.10;99.90;;;;;;5036731;28;20021;-60
2023/02/22 06:09:41;;;;;;;19.25;9.07;;;7.00;99.90;;;;;;5043451;28;20091;-61
2023/02/22 06:12:08;;;;;;;15.13;8.25;;;7.00;99.90;;;;;;5034528;28;20030;-58
2023/02/22 06:14:34;;;;;;;18.13;9.10;;;7.00;99.90;;;;;;5044665;28;20033;-58
2023/02/22 06:16:59;;;;;;;18.90;8.65;;;7.00;99.90;;;;;;5031431;28;20025;-60
2023/02/22 06:19:26;;;;;;;16.73;9.30;;;7.00;99.90;;;;;;5045397;28;20025;-59
2023/02/22 06:21:56;;;;;;;18.08;8.70;;;7.00;99.90;;;;;;5035745;28;20028;-58
2023/02/22 06:24:22;;;;;;;20.75;9.23;;;7.00;99.90;;;;;;5042259;28;20392;-59
2023/02/22 06:26:56;;;;;;;21.80;10.90;;;7.00;99.90;;;;;;5041660;28;20503;-56
2023/02/22 06:29:23;;;;;;;21.38;9.07;;;7.00;99.90;;;;;;5046669;28;20522;-57
2023/02/22 06:31:49;;;;;;;22.83;10.50;;;7.10;99.90;;;;;;5038523;28;20014;-61
2023/02/22 06:34:15;;;;;;;23.77;11.15;;;7.00;99.90;;;;;;5039135;28;20040;-57
2023/02/22 06:36:41;;;;;;;22.58;9.73;;;7.10;99.90;;;;;;5045134;28;20549;-61
2023/02/22 06:39:09;;;;;;;27.15;13.13;;;7.00;99.90;;;;;;5037547;28;20044;-57
2023/02/22 06:41:38;;;;;;;27.13;11.90;;;7.00;99.90;;;;;;5041157;28;20017;-58
2023/02/22 06:44:04;;;;;;;27.83;12.23;;;7.10;99.90;;;;;;5042315;28;20115;-56
2023/02/22 06:46:30;;;;;;;22.23;11.98;;;7.10;99.90;;;;;;5039050;28;20467;-59
2023/02/22 06:48:58;;;;;;;30.95;13.02;;;7.10;99.90;;;;;;5038225;28;20055;-59
2023/02/22 06:51:24;;;;;;;24.30;12.20;;;7.10;99.90;;;;;;5038588;28;20510;-58
2023/02/22 06:53:50;;;;;;;24.98;12.32;;;7.10;99.90;;;;;;5038225;28;20024;-59
2023/02/22 06:56:15;;;;;;;26.10;12.30;;;7.10;99.90;;;;;;5038738;28;20030;-59
2023/02/22 06:58:41;;;;;;;26.83;13.38;;;7.10;99.90;;;;;;5044356;28;20104;-60
2023/02/22 07:01:06;;;;;;;39.10;14.48;;;7.10;99.90;;;;;;5038551;28;20052;-58
2023/02/22 07:03:33;;;;;;;31.80;14.50;;;7.10;99.90;;;;;;5037027;28;20104;-59
2023/02/22 07:05:59;;;;;;;29.55;13.02;;;7.20;99.90;;;;;;5031186;28;20029;-60
2023/02/22 07:08:24;;;;;;;31.17;14.23;;;7.20;99.90;;;;;;5035501;28;20052;-61
2023/02/22 07:10:51;;;;;;;33.13;14.68;;;7.20;99.90;;;;;;5031161;28;20637;-59
2023/02/22 07:13:16;;;;;;;27.58;13.63;;;7.20;99.90;;;;;;5045264;28;20025;-59
2023/02/22 07:15:42;;;;;;;30.88;14.20;;;7.20;99.90;;;;;;5040492;28;20037;-61
2023/02/22 07:18:08;;;;;;;28.65;14.70;;;7.20;99.90;;;;;;5041574;28;20033;-59
2023/02/22 07:20:33;;;;;;;32.28;13.85;;;7.20;99.90;;;;;;5039368;28;20024;-59
2023/02/22 07:23:00;;;;;;;31.73;13.95;;;7.20;99.90;;;;;;5041289;28;20176;-58
2023/02/22 07:25:25;;;;;;;30.67;14.48;;;7.20;99.90;;;;;;5040426;28;20028;-59
2023/02/22 07:27:51;;;;;;;31.83;14.27;;;7.20;99.90;;;;;;5040653;28;20515;-59
2023/02/22 07:30:24;;;;;;;31.65;15.13;;;7.30;99.90;;;;;;5040120;28;20061;-61
2023/02/22 07:32:50;;;;;;;31.90;13.18;;;7.30;99.90;;;;;;5039787;28;20021;-59
2023/02/22 07:35:26;;;;;;;33.08;15.32;;;7.30;99.90;;;;;;5040349;28;20029;-61
2023/02/22 07:37:52;;;;;;;36.53;13.97;;;7.30;99.90;;;;;;5036530;28;20023;-58
2023/02/22 07:40:18;;;;;;;32.80;14.88;;;7.30;99.90;;;;;;5036089;28;20112;-56
2023/02/22 07:43:14;;;;;;;34.72;14.52;;;7.30;99.90;;;;;;5038257;28;20052;-57
2023/02/22 07:45:39;;;;;;;29.13;14.35;;;7.40;99.90;;;;;;5033056;28;20068;-55
2023/02/22 07:48:05;;;;;;;32.67;15.05;;;7.40;99.90;;;;;;5040576;28;20048;-55
2023/02/22 07:50:33;;;;;;;32.92;14.20;;;7.40;99.90;;;;;;5036115;28;20499;-61
2023/02/22 07:53:02;;;;;;;36.13;14.98;;;7.40;99.90;;;;;;5040536;28;20025;-61
2023/02/22 07:55:29;;;;;;;30.50;14.55;;;7.40;99.90;;;;;;5036235;28;20033;-61
2023/02/22 07:57:58;;;;;;;29.60;13.23;;;7.50;99.90;;;;;;5041923;28;20056;-60
2023/02/22 08:00:35;;;;;;;29.73;13.98;;;7.50;99.90;;;;;;5036202;28;20112;-58
2023/02/22 08:03:03;;;;;;;30.50;13.55;;;7.50;99.90;;;;;;5036515;28;20025;-59
2023/02/22 08:05:30;;;;;;;31.00;13.95;;;7.50;99.90;;;;;;5034797;28;20557;-60
2023/02/22 08:07:56;;;;;;;26.88;12.95;;;7.60;99.90;;;;;;5039785;28;20022;-58
2023/02/22 08:10:24;;;;;;;28.05;14.68;;;7.60;99.90;;;;;;5032623;28;20079;-58
2023/02/22 08:12:50;;;;;;;27.98;13.85;;;7.60;99.90;;;;;;5046132;28;20514;-59
2023/02/22 08:15:19;;;;;;;26.73;13.30;;;7.60;99.90;;;;;;5032239;28;20021;-62
2023/02/22 08:17:44;;;;;;;32.55;14.90;;;7.70;99.90;;;;;;5040279;28;21213;-60
2023/02/22 08:20:10;;;;;;;29.25;13.88;;;7.70;99.90;;;;;;5038774;28;20037;-59
2023/02/22 08:22:36;;;;;;;25.73;13.05;;;7.70;99.90;;;;;;5033766;28;20021;-62
2023/02/22 08:25:01;;;;;;;26.23;12.63;;;7.80;99.90;;;;;;5042900;28;20029;-59
2023/02/22 08:27:29;;;;;;;25.55;13.70;;;7.80;99.90;;;;;;5035978;28;20021;-60
2023/02/22 08:29:55;;;;;;;23.35;11.93;;;7.80;99.90;;;;;;5044643;28;20038;-57
2023/02/22 08:32:22;;;;;;;23.45;12.35;;;7.80;99.90;;;;;;5037032;28;20021;-58
2023/02/22 08:34:47;;;;;;;22.55;12.48;;;7.80;99.90;;;;;;5039175;28;20021;-59
2023/02/22 08:37:14;;;;;;;25.42;12.85;;;7.90;99.90;;;;;;5040349;28;20364;-61
2023/02/22 08:39:40;;;;;;;21.35;11.13;;;7.90;99.90;;;;;;5040545;28;20485;-62
2023/02/22 08:42:07;;;;;;;20.58;12.30;;;7.90;99.90;;;;;;5046317;28;20057;-61
2023/02/22 08:44:33;;;;;;;20.33;11.23;;;7.90;99.90;;;;;;5042159;28;20014;-58
2023/02/22 08:46:59;;;;;;;19.80;11.77;;;7.90;99.90;;;;;;5044181;28;20024;-60
2023/02/22 08:49:24;;;;;;;26.00;12.50;;;7.90;99.90;;;;;;5041797;28;20037;-62
2023/02/22 08:51:50;;;;;;;18.10;11.38;;;8.00;99.90;;;;;;5029129;28;20028;-61
2023/02/22 08:54:17;;;;;;;19.08;11.10;;;8.00;99.90;;;;;;5044212;28;20021;-61
2023/02/22 08:56:42;;;;;;;23.63;11.38;;;8.00;99.90;;;;;;5043143;28;20472;-60
2023/02/22 08:59:08;;;;;;;15.43;10.45;;;8.10;99.90;;;;;;5041477;28;20053;-61
2023/02/22 09:01:34;;;;;;;19.60;12.05;;;8.10;99.90;;;;;;5041997;28;20018;-62
2023/02/22 09:03:59;;;;;;;21.83;12.10;;;8.20;99.90;;;;;;5043705;28;20075;-61
2023/02/22 09:06:25;;;;;;;20.98;11.30;;;8.20;99.90;;;;;;5041452;28;20060;-61
2023/02/22 09:08:51;;;;;;;19.42;11.35;;;8.30;99.90;;;;;;5040288;28;20475;-62
2023/02/22 09:11:17;;;;;;;23.88;12.52;;;8.30;99.90;;;;;;5039681;28;20035;-60
2023/02/22 09:13:43;;;;;;;15.85;10.48;;;8.40;99.90;;;;;;5043317;28;20218;-58
2023/02/22 09:16:09;;;;;;;16.50;11.55;;;8.40;99.90;;;;;;5043780;28;20364;-60
2023/02/22 09:18:35;;;;;;;19.52;11.88;;;8.40;99.90;;;;;;5041857;28;20140;-60
2023/02/22 09:21:02;;;;;;;19.45;11.82;;;8.50;99.90;;;;;;5043638;28;20483;-62
2023/02/22 09:23:27;;;;;;;19.80;11.65;;;8.60;99.90;;;;;;5041757;28;20468;-61
2023/02/22 09:25:53;;;;;;;21.65;11.48;;;8.60;99.90;;;;;;5044154;28;20027;-59
2023/02/22 09:28:18;;;;;;;20.80;10.93;;;8.70;99.90;;;;;;5044707;28;20039;-61
2023/02/22 09:30:44;;;;;;;18.30;11.02;;;8.80;99.90;;;;;;5043361;28;20032;-60
2023/02/22 09:33:16;;;;;;;23.38;13.00;;;8.80;99.90;;;;;;5040777;28;20063;-60
2023/02/22 09:35:47;;;;;;;19.02;10.73;;;8.90;99.90;;;;;;5041677;28;20576;-61
2023/02/22 09:38:21;;;;;;;18.90;11.02;;;8.90;99.90;;;;;;5046178;28;20183;-62
2023/02/22 09:41:11;;;;;;;20.00;11.18;;;9.00;99.90;;;;;;5042413;28;20017;-60
2023/02/22 09:44:22;;;;;;;19.35;11.98;;;9.10;99.90;;;;;;5040242;28;20040;-61
2023/02/22 09:46:49;;;;;;;23.05;12.63;;;9.20;99.90;;;;;;5042895;28;20025;-61
2023/02/22 09:49:18;;;;;;;20.17;12.35;;;9.20;99.90;;;;;;5041695;28;20017;-60
2023/02/22 09:51:54;;;;;;;22.05;12.20;;;9.20;99.90;;;;;;5048660;28;20484;-60
2023/02/22 09:54:35;;;;;;;21.02;12.55;;;9.30;99.90;;;;;;5042201;28;20495;-60
2023/02/22 09:57:08;;;;;;;20.98;11.90;;;9.20;99.90;;;;;;5031503;28;20403;-62
2023/02/22 09:59:42;;;;;;;20.20;12.68;;;9.20;99.90;;;;;;5039701;28;20540;-59
2023/02/22 10:02:27;;;;;;;21.52;11.90;;;9.30;99.90;;;;;;5028320;28;20388;-57
2023/02/22 10:05:04;;;;;;;23.38;12.88;;;9.30;99.90;;;;;;5029990;28;20125;-60
2023/02/22 10:07:48;;;;;;;14.32;10.27;;;9.20;99.90;;;;;;5042024;28;20070;-62
2023/02/22 10:10:17;;;;;;;21.27;11.63;;;9.20;99.90;;;;;;5036166;28;20033;-62
2023/02/22 10:12:57;;;;;;;19.10;11.57;;;9.30;99.90;;;;;;5047809;28;20037;-62
2023/02/22 10:15:45;;;;;;;22.65;11.20;;;9.30;99.90;;;;;;5039119;28;20040;-62
2023/02/22 10:18:42;;;;;;;17.83;10.23;;;9.40;99.90;;;;;;5049140;28;20025;-60
2023/02/22 10:21:40;;;;;;;19.85;10.43;;;9.40;99.90;;;;;;5035362;28;20023;-62
2023/02/22 10:24:25;;;;;;;19.13;10.77;;;9.40;99.90;;;;;;5042925;28;20023;-63
2023/02/22 10:26:53;;;;;;;19.25;10.95;;;9.40;99.90;;;;;;5034392;28;20032;-60
2023/02/22 10:29:35;;;;;;;15.77;10.52;;;9.40;99.90;;;;;;5046016;28;20032;-62
2023/02/22 10:32:03;;;;;;;15.90;10.18;;;9.40;99.90;;;;;;5034851;28;20024;-61
2023/02/22 10:34:36;;;;;;;17.33;10.93;;;9.30;99.90;;;;;;5039154;28;20038;-58
2023/02/22 10:37:30;;;;;;;18.73;11.30;;;9.30;99.90;;;;;;5043744;28;20087;-62
2023/02/22 10:40:16;;;;;;;17.27;11.20;;;9.30;99.90;;;;;;5028591;28;20032;-61
2023/02/22 10:42:42;;;;;;;16.50;9.98;;;9.20;99.90;;;;;;5041157;28;20025;-59
2023/02/22 10:45:22;;;;;;;14.27;8.70;;;9.20;99.90;;;;;;5038147;28;20047;-61
2023/02/22 10:47:49;;;;;;;19.25;10.43;;;9.20;99.90;;;;;;5034373;28;20443;-62
2023/02/22 10:50:16;;;;;;;20.27;11.80;;;9.20;99.90;;;;;;5040346;28;20438;-61
2023/02/22 10:52:41;;;;;;;18.73;11.38;;;9.30;99.90;;;;;;5039958;28;20034;-59
2023/02/22 10:55:13;;;;;;;17.90;11.23;;;9.30;99.90;;;;;;5041495;28;20090;-62
2023/02/22 10:57:41;;;;;;;20.95;11.15;;;9.30;99.90;;;;;;5039495;28;20049;-62
2023/02/22 11:00:36;;;;;;;15.30;10.48;;;9.30;99.90;;;;;;5034791;28;20029;-63
2023/02/22 11:03:16;;;;;;;16.65;8.90;;;9.30;99.90;;;;;;5033613;28;20043;-63
2023/02/22 11:05:42;;;;;;;16.08;10.10;;;9.30;99.90;;;;;;5044291;28;20032;-62
2023/02/22 11:08:20;;;;;;;17.63;10.15;;;9.40;99.90;;;;;;5038495;28;20044;-62
2023/02/22 11:10:54;;;;;;;14.88;9.85;;;9.40;99.90;;;;;;5042174;28;20032;-62
2023/02/22 11:13:28;;;;;;;16.17;9.95;;;9.40;99.90;;;;;;5039944;28;20033;-61
2023/02/22 11:15:57;;;;;;;17.17;11.05;;;9.40;99.90;;;;;;5039662;28;20025;-61
2023/02/22 11:18:32;;;;;;;14.18;9.75;;;9.50;99.90;;;;;;5032773;28;20028;-62
2023/02/22 11:21:02;;;;;;;16.17;10.10;;;9.50;99.90;;;;;;5033298;28;20214;-61
2023/02/22 11:23:28;;;;;;;15.55;9.57;;;9.60;99.90;;;;;;5033032;28;20029;-57
2023/02/22 11:26:04;;;;;;;16.02;10.30;;;9.70;99.90;;;;;;5045249;28;20031;-62
2023/02/22 11:28:31;;;;;;;17.50;9.85;;;9.70;99.90;;;;;;5039269;28;20035;-63
2023/02/22 11:31:10;;;;;;;17.30;9.68;;;9.80;99.90;;;;;;5041529;28;20027;-62
2023/02/22 11:33:36;;;;;;;16.58;9.90;;;9.90;99.90;;;;;;5039579;28;20037;-63
2023/02/22 11:36:07;;;;;;;15.70;10.48;;;9.90;99.90;;;;;;5041172;28;20498;-62
2023/02/22 11:38:36;;;;;;;16.80;10.18;;;10.00;99.90;;;;;;5036764;28;20106;-62
2023/02/22 11:41:21;;;;;;;16.15;10.68;;;10.00;99.90;;;;;;5042604;28;20135;-63
2023/02/22 11:43:49;;;;;;;17.10;11.05;;;10.10;99.90;;;;;;5038150;28;20105;-62
2023/02/22 11:46:21;;;;;;;15.00;10.27;;;10.20;99.90;;;;;;5037871;28;20061;-62
2023/02/22 11:48:53;;;;;;;16.17;10.32;;;10.20;99.90;;;;;;5043344;28;20029;-59
2023/02/22 11:51:52;;;;;;;16.63;10.07;;;10.30;99.90;;;;;;5033603;28;20399;-61
2023/02/22 11:54:27;;;;;;;15.70;9.82;;;10.30;99.90;;;;;;5034893;28;20391;-62
2023/02/22 11:57:16;;;;;;;15.20;10.23;;;10.30;99.90;;;;;;5027844;28;20467;-63
2023/02/22 12:00:06;;;;;;;16.15;10.73;;;10.30;99.90;;;;;;5039916;28;20021;-61
2023/02/22 12:02:43;;;;;;;15.38;10.20;;;10.30;99.90;;;;;;5040309;28;20043;-61
2023/02/22 12:05:09;;;;;;;14.80;10.18;;;10.30;99.90;;;;;;5041464;28;20032;-56
2023/02/22 12:07:49;;;;;;;13.70;9.02;;;10.30;99.90;;;;;;5039382;28;20036;-63
2023/02/22 12:10:23;;;;;;;17.42;10.18;;;10.30;99.90;;;;;;5037323;28;20530;-57
2023/02/22 12:13:29;;;;;;;15.98;10.27;;;10.40;99.90;;;;;;5046260;28;20029;-62
2023/02/22 12:15:58;;;;;;;14.02;9.48;;;10.40;99.90;;;;;;5011892;28;20480;-58
2023/02/22 12:18:57;;;;;;;17.20;10.65;;;10.40;99.90;;;;;;5043510;28;20107;-60
2023/02/22 12:21:24;;;;;;;15.80;9.73;;;10.40;99.90;;;;;;5036904;28;20341;-60
2023/02/22 12:24:01;;;;;;;14.95;9.65;;;10.40;99.90;;;;;;5035973;28;20028;-62
2023/02/22 12:26:42;;;;;;;16.05;11.32;;;10.40;99.90;;;;;;5044726;28;20394;-61
2023/02/22 12:29:42;;;;;;;13.85;9.73;;;10.40;99.90;;;;;;5026417;28;20403;-62
2023/02/22 12:32:41;;;;;;;16.75;9.82;;;10.50;99.90;;;;;;5030777;28;20025;-60
2023/02/22 12:35:34;;;;;;;14.63;10.00;;;10.70;99.90;;;;;;5034026;28;20586;-62
2023/02/22 12:38:13;;;;;;;13.57;9.50;;;10.70;99.90;;;;;;5020204;28;20500;-62
2023/02/22 12:40:52;;;;;;;15.30;11.10;;;10.80;99.90;;;;;;5031308;28;20021;-60
2023/02/22 12:43:21;;;;;;;14.93;9.73;;;10.80;99.90;;;;;;5039924;28;20021;-56
2023/02/22 12:46:01;;;;;;;13.80;9.13;;;10.80;99.90;;;;;;5037150;28;20099;-60
2023/02/22 12:48:27;;;;;;;17.05;10.55;;;10.90;99.90;;;;;;5046424;28;20454;-60
2023/02/22 12:50:57;;;;;;;14.35;9.80;;;10.90;99.90;;;;;;5039239;28;20084;-61
2023/02/22 12:53:39;;;;;;;15.93;10.30;;;11.00;99.90;;;;;;5040604;28;20034;-60
2023/02/22 12:56:11;;;;;;;16.27;10.10;;;11.00;99.90;;;;;;5037218;28;20029;-57
2023/02/22 12:58:48;;;;;;;17.60;9.95;;;11.10;99.90;;;;;;5043860;28;20021;-60
2023/02/22 13:01:20;;;;;;;15.13;9.55;;;11.10;99.90;;;;;;5037320;28;20030;-62